Time;durP1;ratioP1;P1;durP2;ratioP2;P2;SDS_P1;SDS_P2;PMS_P1;PMS_P2;Temp;Humidity;BMP_temperature;BMP_pressure;BME280_temperature;BME280_humidity;BME280_pressure;Samples;Min_cycle;Max_cycle;Signal;HPM_P1;HPM_P2
2023/05/14 08:21:35;;;;;;;55.30;41.70;;;;;;;10.26;100.00;97579.69;1710051;75;913512;-72
2023/05/14 08:24:06;;;;;;;36.40;31.40;;;;;;;10.36;100.00;97566.66;1704169;75;677891;-70
2023/05/14 08:26:37;;;;;;;23.40;19.30;;;;;;;10.55;100.00;97567.16;1712356;75;676006;-71
2023/05/14 08:29:08;;;;;;;17.25;15.55;;;;;;;10.69;100.00;97551.94;1705214;75;674358;-71
2023/05/14 08:31:38;;;;;;;10.30;9.20;;;;;;;10.70;100.00;97558.91;1709718;75;964066;-72
2023/05/14 08:34:08;;;;;;;8.00;7.20;;;;;;;10.83;100.00;97556.59;1705664;75;691119;-71
2023/05/14 08:36:41;;;;;;;5.60;5.10;;;;;;;10.94;100.00;97553.97;1713321;75;674367;-73
2023/05/14 08:39:12;;;;;;;4.00;3.70;;;;;;;11.09;100.00;97556.63;1701681;75;936026;-72
2023/05/14 08:41:43;;;;;;;3.95;3.40;;;;;;;11.09;100.00;97560.13;1712820;75;674567;-72
2023/05/14 08:44:20;;;;;;;3.40;2.95;;;;;;;11.07;100.00;97542.66;1704477;75;714465;-72
2023/05/14 08:46:52;;;;;;;3.30;2.80;;;;;;;11.35;100.00;97550.41;1713193;75;675527;-74
2023/05/14 08:49:35;;;;;;;4.15;3.65;;;;;;;11.37;100.00;97540.47;1697329;75;1298696;-73
2023/05/14 08:52:09;;;;;;;4.90;4.40;;;;;;;11.40;100.00;97536.00;1704445;75;698092;-71
2023/05/14 08:54:39;;;;;;;3.90;3.45;;;;;;;11.44;100.00;97547.50;1710352;75;925952;-71
2023/05/14 08:57:12;;;;;;;3.40;3.00;;;;;;;11.41;100.00;97540.25;1704746;75;673038;-72
2023/05/14 08:59:42;;;;;;;4.90;4.10;;;;;;;11.34;100.00;97541.44;1713701;75;673007;-71
2023/05/14 09:02:16;;;;;;;10.90;7.80;;;;;;;11.28;100.00;97538.66;1704598;75;669641;-73
2023/05/14 09:04:47;;;;;;;5.70;4.40;;;;;;;11.37;100.00;97532.25;1711420;75;806311;-72
2023/05/14 09:07:20;;;;;;;3.90;3.10;;;;;;;11.25;100.00;97531.38;1704676;75;674053;-72
2023/05/14 09:09:50;;;;;;;2.80;2.20;;;;;;;11.39;100.00;97523.56;1713018;75;675668;-72
2023/05/14 09:12:21;;;;;;;2.50;1.80;;;;;;;11.41;100.00;97524.56;1704350;75;676222;-71
2023/05/14 09:14:52;;;;;;;2.70;2.10;;;;;;;11.12;100.00;97514.56;1712627;75;676883;-74
2023/05/14 09:17:23;;;;;;;2.10;1.90;;;;;;;11.42;100.00;97511.59;1705410;75;673615;-71
2023/05/14 09:19:54;;;;;;;1.95;1.75;;;;;;;11.05;100.00;97515.75;1712171;75;674547;-72
2023/05/14 09:22:27;;;;;;;3.75;2.50;;;;;;;11.29;100.00;97515.47;1704512;75;670130;-71
2023/05/14 09:25:10;;;;;;;2.05;1.80;;;;;;;11.13;100.00;97520.81;1712670;75;674733;-74
2023/05/14 09:27:41;;;;;;;1.55;1.40;;;;;;;11.41;100.00;97524.56;1703742;75;744825;-71
2023/05/14 09:30:14;;;;;;;1.50;1.40;;;;;;;11.61;100.00;97514.75;1713549;75;677649;-70
2023/05/14 09:32:47;;;;;;;2.20;1.60;;;;;;;11.49;100.00;97519.41;1702531;75;738073;-76
2023/05/14 09:35:20;;;;;;;6.65;5.20;;;;;;;11.48;100.00;97526.88;1710476;75;672057;-72
2023/05/14 09:37:56;;;;;;;5.30;3.75;;;;;;;11.54;100.00;97504.25;1701408;75;758520;-72
2023/05/14 09:40:27;;;;;;;5.60;3.90;;;;;;;11.42;100.00;97498.66;1707346;75;677044;-71
2023/05/14 09:42:57;;;;;;;7.00;4.70;;;;;;;11.34;100.00;97494.84;1710360;75;679563;-70
2023/05/14 09:45:27;;;;;;;4.00;2.70;;;;;;;11.27;100.00;97498.03;1702399;75;678760;-73
2023/05/14 09:47:58;;;;;;;1.80;1.70;;;;;;;11.51;100.00;97497.75;1711517;75;668075;-73
2023/05/14 09:50:28;;;;;;;2.40;1.95;;;;;;;11.47;100.00;97497.97;1703140;75;673320;-71
2023/05/14 09:53:02;;;;;;;2.90;2.40;;;;;;;11.47;100.00;97476.03;1709717;75;752237;-71
2023/05/14 09:55:33;;;;;;;2.60;1.80;;;;;;;11.43;100.00;97489.19;1700272;75;925678;-73
2023/05/14 09:58:03;;;;;;;1.60;1.30;;;;;;;11.48;100.00;97472.06;1710933;75;685011;-72
2023/05/14 10:00:37;;;;;;;2.75;2.10;;;;;;;11.55;100.00;97467.38;1702542;75;701973;-71
2023/05/14 10:03:10;;;;;;;11.25;6.25;;;;;;;11.62;100.00;97461.44;1711883;75;674419;-74
2023/05/14 10:05:42;;;;;;;31.60;20.60;;;;;;;11.69;100.00;97455.53;1703412;75;670527;-73
2023/05/14 10:08:21;;;;;;;8.30;6.40;;;;;;;11.50;100.00;97466.09;1711437;75;675749;-75
2023/05/14 10:10:53;;;;;;;5.35;3.15;;;;;;;11.80;100.00;97455.56;1701786;75;756337;-72
2023/05/14 10:13:26;;;;;;;2.30;2.10;;;;;;;12.06;100.00;97446.53;1709808;75;683481;-71
2023/05/14 10:16:10;;;;;;;1.70;1.55;;;;;;;12.25;100.00;97450.38;1701908;75;733577;-72
2023/05/14 10:18:47;;;;;;;3.00;2.00;;;;;;;12.32;100.00;97455.41;1703890;75;685599;-74
2023/05/14 10:21:20;;;;;;;4.40;2.00;;;;;;;11.86;100.00;97456.38;1711851;75;676050;-73
2023/05/14 10:23:54;;;;;;;2.15;1.50;;;;;;;12.36;100.00;97453.19;1703153;75;672100;-73
2023/05/14 10:26:24;;;;;;;1.40;1.10;;;;;;;12.05;100.00;97454.03;1710350;75;676605;-73
2023/05/14 10:28:55;;;;;;;8.60;5.70;;;;;;;12.35;100.00;97451.66;1703474;75;676656;-76
2023/05/14 10:31:46;;;;;;;6.00;3.95;;;;;;;12.48;100.00;97453.97;1711103;75;679260;-73
2023/05/14 10:34:39;;;;;;;2.25;1.50;;;;;;;12.37;100.00;97456.66;1701849;75;757388;-72
2023/05/14 10:37:13;;;;;;;1.85;1.50;;;;;;;12.25;100.00;97452.38;1702673;75;681034;-73
2023/05/14 10:39:49;;;;;;;2.00;1.30;;;;;;;12.29;100.00;97455.63;1711106;75;681955;-74
2023/05/14 10:42:22;;;;;;;0.85;0.80;;;;;;;12.26;100.00;97454.63;1701748;75;731662;-71
2023/05/14 10:44:57;;;;;;;3.10;0.90;;;;;;;12.28;100.00;97443.91;1710679;75;685198;-73
2023/05/14 10:47:28;;;;;;;1.90;1.00;;;;;;;12.22;100.00;97439.63;1701592;75;751632;-72
2023/05/14 10:50:01;;;;;;;1.35;1.20;;;;;;;12.27;100.00;97433.44;1710955;75;675164;-71
2023/05/14 10:52:33;;;;;;;2.90;2.25;;;;;;;12.23;100.00;97427.41;1701416;75;743360;-75
2023/05/14 10:55:09;;;;;;;1.90;1.60;;;;;;;12.17;100.00;97424.66;1710230;75;702648;-76
2023/05/14 10:57:41;;;;;;;2.55;2.10;;;;;;;12.07;100.00;97426.09;1702085;75;756721;-75
2023/05/14 11:00:15;;;;;;;1.65;1.00;;;;;;;12.12;100.00;97428.09;1710796;75;674063;-75
2023/05/14 11:02:47;;;;;;;1.15;0.90;;;;;;;12.21;100.00;97422.41;1701829;75;756067;-75
2023/05/14 11:05:19;;;;;;;0.90;0.70;;;;;;;12.18;100.00;97404.19;1710755;75;675766;-72
2023/05/14 11:07:51;;;;;;;0.55;0.55;;;;;;;12.24;100.00;97385.75;1701518;75;744602;-72
2023/05/14 11:10:24;;;;;;;0.80;0.60;;;;;;;12.19;100.00;97380.97;1710507;75;676581;-76
2023/05/14 11:12:55;;;;;;;0.85;0.70;;;;;;;12.08;100.00;97384.44;1701833;75;735415;-75
2023/05/14 11:15:27;;;;;;;0.50;0.50;;;;;;;12.15;100.00;97380.50;1711037;75;679865;-73
2023/05/14 11:17:58;;;;;;;0.75;0.75;;;;;;;12.27;100.00;97384.03;1702031;75;739964;-74
2023/05/14 11:20:28;;;;;;;0.70;0.60;;;;;;;12.37;100.00;97388.03;1710857;75;670569;-76
2023/05/14 11:22:59;;;;;;;0.70;0.70;;;;;;;12.59;100.00;97398.34;1702739;75;743385;-72
2023/05/14 11:25:32;;;;;;;0.50;0.50;;;;;;;12.57;100.00;97398.06;1711125;75;673547;-74
2023/05/14 11:28:02;;;;;;;0.75;0.70;;;;;;;12.60;100.00;97399.81;1701975;75;748679;-73
2023/05/14 11:30:34;;;;;;;0.50;0.50;;;;;;;12.62;100.00;97397.34;1711280;75;676658;-73
2023/05/14 11:33:05;;;;;;;2.00;1.60;;;;;;;12.39;100.00;97395.75;1702805;75;742967;-76
2023/05/14 11:35:35;;;;;;;3.70;2.80;;;;;;;12.33;100.00;97404.75;1687317;75;2714806;-75
2023/05/14 11:38:05;;;;;;;2.95;2.50;;;;;;;12.25;100.00;97398.22;1702007;75;745544;-73
2023/05/14 11:40:38;;;;;;;6.75;3.85;;;;;;;12.21;100.00;97391.47;1711157;75;671357;-72
2023/05/14 11:43:08;;;;;;;12.60;7.75;;;;;;;12.09;100.00;97379.69;1701805;75;748606;-73
2023/05/14 11:45:38;;;;;;;18.90;13.45;;;;;;;12.19;100.00;97370.00;1711468;75;673747;-75
2023/05/14 11:48:16;;;;;;;9.80;7.40;;;;;;;12.18;100.00;97382.25;1701212;75;762314;-72
2023/05/14 11:50:48;;;;;;;;;;;;;;;12.08;100.00;97389.19;1700198;75;934202;-70
2023/05/14 11:53:22;;;;;;;2.20;1.80;;;;;;;12.31;100.00;97381.78;1711347;75;697457;-72
2023/05/14 11:55:56;;;;;;;1.20;1.10;;;;;;;12.19;100.00;97377.50;1701738;75;872156;-75
2023/05/14 11:58:27;;;;;;;0.60;0.60;;;;;;;12.19;100.00;97374.75;1708375;75;946211;-71
2023/05/14 12:00:58;;;;;;;0.60;0.40;;;;;;;12.19;100.00;97370.00;1703043;75;677608;-73
2023/05/14 12:03:29;;;;;;;8.75;6.00;;;;;;;12.03;100.00;97365.22;1709003;75;882129;-75
2023/05/14 12:06:00;;;;;;;10.70;9.40;;;;;;;12.04;100.00;97383.91;1702516;75;678222;-73
2023/05/14 12:08:33;;;;;;;5.15;4.20;;;;;;;12.00;100.00;97377.94;1711240;75;686387;-73
2023/05/14 12:11:05;;;;;;;6.60;4.80;;;;;;;12.04;100.00;97370.19;1703308;75;673129;-76
2023/05/14 12:13:36;;;;;;;5.15;3.40;;;;;;;11.91;100.00;97365.16;1710045;75;763759;-72
2023/05/14 12:16:07;;;;;;;2.85;1.75;;;;;;;11.93;100.00;97359.94;1703431;75;672702;-72
2023/05/14 12:18:37;;;;;;;1.10;0.85;;;;;;;11.82;100.00;97361.84;1711096;75;677490;-72
2023/05/14 12:21:10;;;;;;;0.75;0.60;;;;;;;11.87;100.00;97359.16;1703068;75;677163;-74
2023/05/14 12:23:42;;;;;;;0.60;0.60;;;;;;;11.96;100.00;97360.19;1711076;75;675617;-74
2023/05/14 12:26:16;;;;;;;0.95;0.50;;;;;;;11.91;100.00;97353.44;1703171;75;740046;-72
2023/05/14 12:28:49;;;;;;;0.60;0.50;;;;;;;11.83;100.00;97355.09;1710889;75;679764;-72
2023/05/14 12:31:19;;;;;;;0.45;0.45;;;;;;;11.80;100.00;97345.13;1702712;75;740584;-73
2023/05/14 12:33:49;;;;;;;0.45;0.45;;;;;;;11.67;100.00;97351.81;1709084;75;842194;-72
2023/05/14 12:36:20;;;;;;;0.40;0.40;;;;;;;11.58;100.00;97352.00;1702183;75;746194;-73
2023/05/14 12:38:50;;;;;;;0.45;0.45;;;;;;;11.59;100.00;97353.47;1711073;75;670401;-73
2023/05/14 12:41:23;;;;;;;0.30;0.30;;;;;;;11.62;100.00;97351.78;1700880;75;753743;-73
2023/05/14 12:43:53;;;;;;;0.30;0.30;;;;;;;11.58;100.00;97360.22;1710627;75;671975;-73
2023/05/14 12:46:23;;;;;;;0.40;0.40;;;;;;;11.60;100.00;97367.97;1701833;75;732788;-74
2023/05/14 12:48:53;;;;;;;0.50;0.40;;;;;;;11.60;100.00;97378.94;1711188;75;683912;-72
2023/05/14 12:51:24;;;;;;;0.40;0.40;;;;;;;11.43;100.00;97376.09;1701240;75;750379;-72
2023/05/14 12:53:54;;;;;;;0.40;0.40;;;;;;;11.43;100.00;97367.84;1709815;75;715741;-73
2023/05/14 12:56:27;;;;;;;0.55;0.50;;;;;;;11.54;100.00;97367.16;1702071;75;743831;-73
2023/05/14 12:58:58;;;;;;;0.40;0.40;;;;;;;11.44;100.00;97370.09;1710770;75;669068;-75
2023/05/14 13:01:28;;;;;;;0.95;0.50;;;;;;;11.47;100.00;97363.66;1701866;75;740339;-73
2023/05/14 13:03:58;;;;;;;1.30;1.00;;;;;;;10.77;100.00;97364.09;1710275;75;684398;-72
2023/05/14 13:06:29;;;;;;;2.85;1.00;;;;;;;11.11;100.00;97362.38;1702244;75;749679;-72
2023/05/14 13:09:01;;;;;;;0.70;0.70;;;;;;;11.07;100.00;97361.88;1711132;75;672606;-72
2023/05/14 13:11:33;;;;;;;0.95;0.85;;;;;;;10.63;100.00;97368.44;1702210;75;745273;-71
2023/05/14 13:14:04;;;;;;;1.10;0.90;;;;;;;10.75;100.00;97359.13;1710668;75;675535;-72
2023/05/14 13:16:35;;;;;;;0.90;0.70;;;;;;;10.84;100.00;97344.47;1702976;75;748813;-76
2023/05/14 13:19:05;;;;;;;0.60;0.60;;;;;;;10.81;100.00;97356.41;1710534;75;680954;-74
2023/05/14 13:21:35;;;;;;;0.65;0.65;;;;;;;11.02;100.00;97357.84;1702442;75;739038;-71
2023/05/14 13:24:06;;;;;;;0.80;0.50;;;;;;;10.85;100.00;97354.97;1711323;75;704385;-72
2023/05/14 13:26:39;;;;;;;7.25;5.90;;;;;;;10.68;100.00;97358.78;1702385;75;762597;-72
2023/05/14 13:29:09;;;;;;;8.10;5.80;;;;;;;10.27;100.00;97356.09;1696245;75;1987610;-72
2023/05/14 13:31:39;;;;;;;6.35;4.85;;;;;;;10.44;100.00;97351.59;1701766;75;742633;-72
2023/05/14 13:34:09;;;;;;;5.00;3.65;;;;;;;10.65;100.00;97344.06;1708072;75;908341;-73
2023/05/14 13:36:39;;;;;;;2.90;1.80;;;;;;;10.85;100.00;97335.78;1700583;75;869770;-72
2023/05/14 13:39:10;;;;;;;1.60;1.20;;;;;;;10.77;100.00;97342.94;1708432;75;916981;-76
2023/05/14 13:41:43;;;;;;;1.15;0.90;;;;;;;10.88;100.00;97334.06;1703143;75;742578;-73
2023/05/14 13:44:13;;;;;;;0.70;0.70;;;;;;;10.93;100.00;97327.13;1711480;75;678105;-72
2023/05/14 13:46:43;;;;;;;0.80;0.65;;;;;;;11.01;100.00;97328.19;1700661;75;870369;-73
2023/05/14 13:49:13;;;;;;;0.60;0.50;;;;;;;11.11;100.00;97326.75;1711515;75;688580;-72
2023/05/14 13:51:43;;;;;;;1.00;0.70;;;;;;;10.70;100.00;97320.72;1690641;75;1670954;-73
2023/05/14 13:54:14;;;;;;;0.50;0.50;;;;;;;10.92;100.00;97328.38;1711064;75;679678;-76
2023/05/14 13:56:46;;;;;;;0.60;0.50;;;;;;;10.74;100.00;97321.25;1702670;75;735626;-72
2023/05/14 13:59:17;;;;;;;0.40;0.40;;;;;;;11.11;100.00;97320.53;1712241;75;671363;-72
2023/05/14 14:01:48;;;;;;;0.50;0.50;;;;;;;11.33;100.00;97315.22;1700745;75;879040;-73
2023/05/14 14:04:18;;;;;;;0.50;0.40;;;;;;;10.64;100.00;97310.47;1709102;75;912955;-75
2023/05/14 14:06:49;;;;;;;0.55;0.50;;;;;;;10.83;100.00;97305.41;1702917;75;741532;-73
2023/05/14 14:09:19;;;;;;;4.35;3.25;;;;;;;11.02;100.00;97294.84;1710725;75;682736;-77
2023/05/14 14:11:52;;;;;;;8.90;6.40;;;;;;;11.05;100.00;97301.34;1701664;75;745773;-75
2023/05/14 14:14:23;;;;;;;7.10;4.70;;;;;;;11.09;100.00;97301.88;1711598;75;678385;-74
2023/05/14 14:16:53;;;;;;;6.25;4.85;;;;;;;11.13;100.00;97316.06;1701791;75;767965;-72
2023/05/14 14:19:23;;;;;;;2.10;1.40;;;;;;;10.53;100.00;97310.34;1711224;75;682144;-75
2023/05/14 14:21:53;;;;;;;0.65;0.55;;;;;;;10.83;100.00;97308.16;1702161;75;749748;-73
2023/05/14 14:24:23;;;;;;;0.85;0.70;;;;;;;10.92;100.00;97317.41;1711066;75;730970;-72
2023/05/14 14:26:56;;;;;;;2.25;1.75;;;;;;;11.12;100.00;97319.31;1702079;75;742592;-73
2023/05/14 14:29:27;;;;;;;9.40;6.75;;;;;;;11.09;100.00;97319.06;1710715;75;694598;-72
2023/05/14 14:32:04;;;;;;;5.30;3.75;;;;;;;11.06;100.00;97309.06;1703179;75;727300;-74
2023/05/14 14:34:34;;;;;;;2.35;1.00;;;;;;;10.71;100.00;97312.03;1693623;75;1760158;-72
2023/05/14 14:37:05;;;;;;;1.65;0.95;;;;;;;10.91;100.00;97302.97;1711551;75;671160;-72
2023/05/14 14:39:35;;;;;;;1.10;0.70;;;;;;;11.00;100.00;97304.78;1689826;75;1836708;-71
2023/05/14 14:42:09;;;;;;;6.70;3.05;;;;;;;10.71;100.00;97314.03;1710988;75;673314;-72
2023/05/14 14:44:40;;;;;;;7.30;3.50;;;;;;;10.56;100.00;97312.16;1703503;75;680561;-73
2023/05/14 14:47:10;;;;;;;7.70;3.50;;;;;;;10.94;100.00;97304.72;1712242;75;678460;-72
2023/05/14 14:49:40;;;;;;;5.40;2.50;;;;;;;10.88;100.00;97301.94;1654032;75;4985585;-73
2023/05/14 14:52:11;;;;;;;3.35;1.60;;;;;;;11.12;100.00;97300.88;1712125;75;673313;-72
2023/05/14 14:54:41;;;;;;;1.90;1.20;;;;;;;11.20;100.00;97304.66;1704573;75;676611;-74
2023/05/14 14:57:14;;;;;;;2.20;0.90;;;;;;;11.34;100.00;97305.00;1708699;75;943709;-73
2023/05/14 14:59:44;;;;;;;1.50;1.10;;;;;;;11.14;100.00;97298.41;1690269;75;1764822;-73
2023/05/14 15:02:14;;;;;;;4.00;2.00;;;;;;;11.25;100.00;97292.25;1711545;75;673856;-71
2023/05/14 15:04:44;;;;;;;4.50;2.00;;;;;;;11.26;100.00;97296.50;1703296;75;678511;-72
2023/05/14 15:07:15;;;;;;;4.30;1.30;;;;;;;10.97;100.00;97305.78;1711259;75;670727;-72
2023/05/14 15:09:45;;;;;;;3.00;1.70;;;;;;;10.70;100.00;97313.25;1699241;75;991002;-72
2023/05/14 15:12:18;;;;;;;2.90;1.50;;;;;;;10.85;100.00;97308.41;1711836;75;672031;-72
2023/05/14 15:14:48;;;;;;;0.80;0.70;;;;;;;10.40;100.00;97310.75;1700432;75;969354;-72
2023/05/14 15:17:18;;;;;;;0.60;0.60;;;;;;;10.68;100.00;97307.53;1709781;75;831852;-73
2023/05/14 15:19:48;;;;;;;0.50;0.50;;;;;;;10.50;100.00;97319.53;1701427;67;895427;-71
2023/05/14 15:22:19;;;;;;;0.65;0.60;;;;;;;10.39;100.00;97314.72;1710989;75;675017;-71
2023/05/14 15:24:49;;;;;;;1.10;1.00;;;;;;;10.36;100.00;97304.72;1689038;75;1726678;-73
2023/05/14 15:27:22;;;;;;;0.90;0.80;;;;;;;10.61;100.00;97291.53;1711753;75;671993;-73
2023/05/14 15:29:52;;;;;;;0.70;0.60;;;;;;;10.77;100.00;97292.91;1703034;75;670976;-73
2023/05/14 15:32:22;;;;;;;2.10;0.60;;;;;;;10.47;100.00;97301.38;1711602;75;675022;-73
2023/05/14 15:34:52;;;;;;;0.50;0.50;;;;;;;10.75;100.00;97287.16;1703227;75;715764;-71
2023/05/14 15:37:22;;;;;;;0.60;0.40;;;;;;;10.79;100.00;97280.22;1710784;75;760507;-75
2023/05/14 15:39:52;;;;;;;0.70;0.60;;;;;;;10.57;100.00;97299.22;1703774;75;671099;-71
2023/05/14 15:42:25;;;;;;;1.20;0.70;;;;;;;10.93;100.00;97292.28;1711390;75;669084;-77
2023/05/14 15:44:55;;;;;;;1.65;0.90;;;;;;;11.04;100.00;97280.66;1703280;75;681881;-72
2023/05/14 15:47:26;;;;;;;0.90;0.70;;;;;;;11.04;100.00;97275.94;1711299;75;672839;-72
2023/05/14 15:49:56;;;;;;;1.30;0.80;;;;;;;11.12;100.00;97278.97;1703793;75;670796;-71
2023/05/14 15:52:26;;;;;;;2.10;1.10;;;;;;;10.71;100.00;97275.69;1709271;75;882482;-71
2023/05/14 15:54:58;;;;;;;1.40;1.00;;;;;;;10.92;100.00;97263.41;1702638;75;784034;-73
2023/05/14 15:57:31;;;;;;;1.70;1.10;;;;;;;10.96;100.00;97274.13;1712010;75;672014;-72
2023/05/14 16:00:01;;;;;;;1.60;1.20;;;;;;;11.03;100.00;97274.41;1688154;75;1884984;-73
2023/05/14 16:02:31;;;;;;;1.40;1.00;;;;;;;10.99;100.00;97257.47;1711034;75;694496;-72
2023/05/14 16:05:02;;;;;;;2.30;1.40;;;;;;;10.54;100.00;97259.13;1702056;75;749869;-72
2023/05/14 16:07:32;;;;;;;5.05;2.10;;;;;;;10.49;100.00;97252.38;1710451;75;674746;-73
2023/05/14 16:10:02;;;;;;;2.85;1.80;;;;;;;10.28;100.00;97256.38;1701606;75;745215;-74
2023/05/14 16:12:35;;;;;;;3.25;2.10;;;;;;;10.22;100.00;97251.63;1711084;75;669618;-73
2023/05/14 16:15:06;;;;;;;3.30;2.55;;;;;;;10.68;100.00;97258.25;1700696;75;811785;-71
2023/05/14 16:17:36;;;;;;;2.30;1.80;;;;;;;10.77;100.00;97252.56;1710754;75;678119;-72
2023/05/14 16:20:08;;;;;;;1.45;1.10;;;;;;;10.61;100.00;97256.69;1702074;75;754529;-74
2023/05/14 16:22:38;;;;;;;1.20;0.80;;;;;;;10.55;100.00;97253.16;1709016;75;871299;-72
2023/05/14 16:25:10;;;;;;;1.00;0.80;;;;;;;10.37;100.00;97246.06;1702243;75;740548;-73
2023/05/14 16:27:44;;;;;;;1.10;1.00;;;;;;;10.28;100.00;97238.00;1711559;75;673053;-72
2023/05/14 16:30:15;;;;;;;1.45;0.80;;;;;;;10.31;100.00;97236.28;1702270;75;756423;-72
2023/05/14 16:32:48;;;;;;;0.70;0.60;;;;;;;10.41;100.00;97224.69;1711830;75;670079;-74
2023/05/14 16:35:18;;;;;;;1.20;0.80;;;;;;;10.70;100.00;97217.44;1699803;75;960369;-71
2023/05/14 16:37:48;;;;;;;2.50;0.80;;;;;;;10.55;100.00;97219.56;1712105;75;673151;-73
2023/05/14 16:40:19;;;;;;;0.90;0.80;;;;;;;10.72;100.00;97214.97;1702106;75;741446;-74
2023/05/14 16:42:51;;;;;;;0.55;0.50;;;;;;;11.07;100.00;97217.44;1708745;75;904420;-76
2023/05/14 16:45:22;;;;;;;0.80;0.60;;;;;;;11.16;100.00;97223.94;1703118;75;746858;-73
2023/05/14 16:47:52;;;;;;;0.95;0.60;;;;;;;11.16;100.00;97226.69;1711607;75;675767;-74
2023/05/14 16:50:22;;;;;;;2.55;1.00;;;;;;;10.76;100.00;97226.44;1701756;75;752418;-73
2023/05/14 16:52:52;;;;;;;0.80;0.80;;;;;;;11.30;100.00;97225.75;1699758;75;1744202;-73
2023/05/14 16:55:23;;;;;;;0.65;0.65;;;;;;;11.52;100.00;97225.88;1702081;75;752861;-74
2023/05/14 16:57:55;;;;;;;0.50;0.50;;;;;;;11.45;100.00;97222.84;1711742;75;671714;-72
2023/05/14 17:00:26;;;;;;;1.00;0.80;;;;;;;11.36;100.00;97226.53;1702980;75;747424;-72
2023/05/14 17:02:56;;;;;;;0.70;0.70;;;;;;;11.36;100.00;97228.53;1711834;75;672963;-74
2023/05/14 17:05:26;;;;;;;1.40;0.80;;;;;;;11.26;100.00;97230.75;1702404;75;752978;-73
2023/05/14 17:07:56;;;;;;;1.50;1.00;;;;;;;11.26;100.00;97236.97;1711782;75;677482;-75
2023/05/14 17:10:29;;;;;;;2.95;0.80;;;;;;;11.23;100.00;97240.69;1701149;75;856904;-73
2023/05/14 17:13:02;;;;;;;0.80;0.80;;;;;;;11.19;100.00;97247.63;1711875;75;677445;-74
2023/05/14 17:15:32;;;;;;;1.00;0.70;;;;;;;11.15;100.00;97236.16;1702252;75;807472;-74
2023/05/14 17:18:02;;;;;;;0.75;0.65;;;;;;;11.26;100.00;97242.44;1697732;75;1896008;-74
2023/05/14 17:20:32;;;;;;;0.80;0.70;;;;;;;11.38;100.00;97248.00;1704407;75;745052;-73
2023/05/14 17:23:02;;;;;;;2.00;0.90;;;;;;;11.23;100.00;97237.19;1713495;75;669757;-76
2023/05/14 17:25:32;;;;;;;1.35;1.05;;;;;;;11.30;100.00;97231.22;1703805;75;761014;-72
2023/05/14 17:28:05;;;;;;;1.90;1.40;;;;;;;11.28;100.00;97226.25;1713514;75;678657;-74
2023/05/14 17:30:36;;;;;;;1.50;1.10;;;;;;;11.42;100.00;97219.09;1703933;75;746191;-73
2023/05/14 17:33:06;;;;;;;1.50;1.30;;;;;;;11.43;100.00;97233.56;1712214;75;758526;-72
2023/05/14 17:35:36;;;;;;;1.00;0.90;;;;;;;11.50;100.00;97239.31;1703581;75;752494;-74
2023/05/14 17:38:06;;;;;;;1.10;0.95;;;;;;;11.42;100.00;97241.00;1709685;75;913120;-72
2023/05/14 17:40:38;;;;;;;1.30;0.80;;;;;;;11.54;100.00;97241.06;1702756;75;737009;-74
2023/05/14 17:43:11;;;;;;;1.40;0.90;;;;;;;11.51;100.00;97232.59;1697108;75;1886271;-73
2023/05/14 17:45:43;;;;;;;0.50;0.50;;;;;;;11.55;100.00;97224.13;1698174;75;983426;-73
2023/05/14 17:48:13;;;;;;;0.70;0.65;;;;;;;11.54;100.00;97219.88;1712038;75;670101;-72
2023/05/14 17:50:44;;;;;;;0.60;0.50;;;;;;;11.51;100.00;97216.13;1702331;75;750848;-73
2023/05/14 17:53:14;;;;;;;0.55;0.35;;;;;;;11.52;100.00;97212.16;1711658;75;676489;-72
2023/05/14 17:55:44;;;;;;;0.40;0.40;;;;;;;11.46;100.00;97222.34;1701798;75;750699;-73
2023/05/14 17:58:18;;;;;;;0.50;0.50;;;;;;;11.37;100.00;97228.03;1711078;75;673214;-73
2023/05/14 18:00:48;;;;;;;0.80;0.75;;;;;;;11.20;100.00;97227.22;1702698;75;747229;-73
2023/05/14 18:03:18;;;;;;;0.75;0.75;;;;;;;11.20;100.00;97227.94;1711264;75;701259;-73
2023/05/14 18:05:49;;;;;;;1.30;0.80;;;;;;;10.76;100.00;97231.91;1690332;75;1693879;-72
2023/05/14 18:08:20;;;;;;;2.05;1.40;;;;;;;10.52;100.00;97234.22;1708549;75;949123;-73
2023/05/14 18:10:50;;;;;;;1.30;1.00;;;;;;;10.56;100.00;97230.03;1702383;75;766133;-73
2023/05/14 18:13:23;;;;;;;1.75;1.10;;;;;;;10.41;100.00;97221.97;1709860;75;751516;-75
2023/05/14 18:15:55;;;;;;;2.85;1.50;;;;;;;10.31;100.00;97222.59;1701145;75;789651;-74
2023/05/14 18:18:25;;;;;;;2.25;1.30;;;;;;;10.20;100.00;97215.03;1708788;75;831197;-73
2023/05/14 18:20:56;;;;;;;3.10;1.70;;;;;;;10.13;100.00;97204.53;1701737;75;747549;-74
2023/05/14 18:23:26;;;;;;;5.40;2.50;;;;;;;10.11;100.00;97210.47;1710438;75;699162;-76
2023/05/14 18:25:56;;;;;;;4.85;2.80;;;;;;;10.36;100.00;97208.22;1701291;75;744269;-73
2023/05/14 18:28:30;;;;;;;5.40;2.80;;;;;;;10.23;100.00;97190.19;1698373;75;1800220;-72
2023/05/14 18:31:00;;;;;;;9.90;4.80;;;;;;;10.12;100.00;97183.88;1698998;75;975751;-73
2023/05/14 18:33:30;;;;;;;5.10;2.95;;;;;;;10.02;100.00;97191.47;1711096;75;709589;-72
2023/05/14 18:36:01;;;;;;;2.15;1.65;;;;;;;10.13;100.00;97182.66;1702359;75;752981;-74
2023/05/14 18:38:31;;;;;;;1.60;1.50;;;;;;;9.94;100.00;97184.97;1710910;75;682047;-73
2023/05/14 18:41:01;;;;;;;4.60;1.60;;;;;;;10.06;100.00;97178.34;1702094;75;752114;-71
2023/05/14 18:43:34;;;;;;;2.55;1.50;;;;;;;9.86;100.00;97181.13;1710559;75;771010;-72
2023/05/14 18:46:04;;;;;;;4.45;1.75;;;;;;;9.86;100.00;97189.34;1700861;75;787472;-72
2023/05/14 18:48:34;;;;;;;2.25;2.00;;;;;;;9.92;100.00;97185.44;1710301;75;701234;-73
2023/05/14 18:51:04;;;;;;;1.95;1.50;;;;;;;10.02;100.00;97186.00;1701699;75;759156;-72
2023/05/14 18:53:35;;;;;;;2.90;1.90;;;;;;;9.95;100.00;97194.66;1710646;75;706662;-73
2023/05/14 18:56:06;;;;;;;1.60;1.50;;;;;;;10.08;100.00;97200.50;1702045;75;743456;-72
2023/05/14 18:58:39;;;;;;;2.40;1.80;;;;;;;10.29;100.00;97205.91;1710574;75;697571;-72
2023/05/14 19:01:10;;;;;;;1.70;1.15;;;;;;;10.48;100.00;97206.31;1701056;75;761156;-73
2023/05/14 19:03:41;;;;;;;3.45;2.55;;;;;;;10.42;100.00;97217.97;1710946;75;669722;-73
2023/05/14 19:06:12;;;;;;;22.90;16.55;;;;;;;10.35;100.00;97220.41;1697691;75;844223;-72
2023/05/14 19:08:43;;;;;;;13.85;11.15;;;;;;;10.48;100.00;97228.22;1711020;75;722949;-72
2023/05/14 19:11:15;;;;;;;8.15;6.60;;;;;;;10.49;100.00;97227.75;1677559;75;2815086;-71
2023/05/14 19:13:49;;;;;;;5.90;4.70;;;;;;;10.65;100.00;97243.56;1710691;75;813262;-72
2023/05/14 19:16:19;;;;;;;5.30;3.95;;;;;;;10.69;100.00;97239.84;1690621;75;1796085;-72
2023/05/14 19:18:49;;;;;;;4.05;3.10;;;;;;;10.60;100.00;97238.75;1712017;75;682682;-72
2023/05/14 19:21:19;;;;;;;3.70;2.75;;;;;;;10.76;100.00;97242.88;1698729;75;960553;-73
2023/05/14 19:23:50;;;;;;;3.90;2.75;;;;;;;10.83;100.00;97233.47;1710678;75;702579;-75
2023/05/14 19:26:20;;;;;;;3.35;2.50;;;;;;;10.84;100.00;97229.47;1700346;75;812335;-73
2023/05/14 19:28:57;;;;;;;2.80;2.10;;;;;;;10.85;100.00;97231.00;1710933;75;679868;-74
2023/05/14 19:31:28;;;;;;;4.20;3.05;;;;;;;10.85;100.00;97223.53;1700637;75;798787;-72
2023/05/14 19:34:00;;;;;;;3.00;2.40;;;;;;;10.84;100.00;97222.00;1708121;75;826508;-74
2023/05/14 19:36:31;;;;;;;2.30;2.00;;;;;;;10.67;100.00;97221.16;1699191;75;943868;-72
2023/05/14 19:39:01;;;;;;;2.30;1.90;;;;;;;10.73;100.00;97221.22;1707120;75;984284;-72
2023/05/14 19:41:33;;;;;;;2.05;1.75;;;;;;;10.78;100.00;97220.50;1702983;75;740852;-72
2023/05/14 19:44:06;;;;;;;1.85;1.50;;;;;;;10.82;100.00;97226.47;1709154;75;878648;-73
2023/05/14 19:46:36;;;;;;;1.55;1.30;;;;;;;10.76;100.00;97220.97;1701965;75;751958;-74
2023/05/14 19:49:06;;;;;;;1.65;1.20;;;;;;;10.81;100.00;97205.81;1708319;75;939395;-73
2023/05/14 19:51:36;;;;;;;1.50;1.10;;;;;;;10.76;100.00;97198.31;1698840;75;979897;-72
2023/05/14 19:54:07;;;;;;;1.20;1.10;;;;;;;10.73;100.00;97202.03;1711208;75;676563;-74
2023/05/14 19:56:37;;;;;;;0.95;0.85;;;;;;;10.73;100.00;97211.00;1702180;75;744716;-73